Atlanta, MI

5:33 AM EDT on September 01, 2015 (GMT -0400)
Moon Lake | | Change Station
CLOSE
Current Station
Personal Weather Station
Location: Lewiston, MI
Elevation: 1240 ft
Nearby Weather Stations

Elev 1240 ft 44.84 °N, 84.26 °W | Updated 1 second ago

Clear
Clear
59.2 °F
Feels Like 59.2 °F
N
0.0
Wind Variable Wind from ENE
Gusts 0.0 mph

Today
High -- | Low -- °F
--% Chance of Precip.
Yesterday
High -- | Low -- °F
Precip. -- in
6:58 AM 8:14 PM
Waning Gibbous, 90% visible
Pressure 30.04 in
Visibility 4.0 miles
Clouds Clear
Dew Point 57 °F
Humidity 92%
Rainfall 0.00 in
Snow Depth Not available.
UV 0 out of 12
Pollen 10.50 out of 12
Air Quality Not available.
Flu Activity Not available.
METAR KGLR 010853Z AUTO 26004KT 4SM BR CLR 17/17 A3005 RMK AO2 SLP171 T01720172 53001
Pressure 30.04 in
Visibility 4.0 miles
Clouds Clear
Dew Point 57 °F
Humidity 92%
Rainfall 0.00 in
Snow Depth Not available.
UV 0 out of 12
Pollen 10.50 out of 12
Air Quality Not available.
Flu Activity Not available.
METAR KGLR 010853Z AUTO 26004KT 4SM BR CLR 17/17 A3005 RMK AO2 SLP171 T01720172 53001
Nowcast | as of 5:00 am EDT on September 1, 2015

At 6 am...clear. Areas of fog. Temperature 64. Southwest winds 5 mph. At 8 am...clear. Areas of fog. Temperature 65. Southwest winds 5 mph. At 10 am...partly cloudy. Temperature 72. Southwest winds 6 mph. At 12 PM...partly cloudy. Temperature 79. Southwest winds 7 mph.

×

10-Day Weather Forecast

×

Almanac

Astronomy

Sep. 01, 2015 Rise Set
Actual Time
Civil Twilight
Nautical Twilight
Astronomical Twilight
Moon
Length of Visible Light
Length of Day
Tomorrow will be .
, % of the Moon is Illuminated

Today's Extremes

State Highs State Lows

Community

WunderPhotos

Upload Photos

1,851,499 photos uploaded!

WunderBlogs® & News

Nearby

Air Quality

  Air Quality AQ Index Pollutant
Not available.

Snow Depth

Station Depth Elevation

Earthquake Activity

City Distance Mag. Time & Date
Minimum magnitude displayed is 2.5.

Coastal Water Temperatures

Place Temperature

Stations

Nearby Weather Stations

Station Location Temp. Windchill Dew Point Humidity Wind Precip. Elev Updated Type